createdAt,value
2022-12-17T00:00:12.802Z,14.63
2022-12-17T00:02:26.865Z,14.27
2022-12-17T00:04:40.653Z,13.60
2022-12-17T00:06:54.594Z,13.80
2022-12-17T00:09:10.895Z,13.40
2022-12-17T00:11:24.560Z,12.77
2022-12-17T00:13:39.716Z,13.13
2022-12-17T00:15:54.159Z,13.83
2022-12-17T00:18:14.706Z,13.60
2022-12-17T00:20:28.370Z,12.37
2022-12-17T00:22:42.533Z,13.20
2022-12-17T00:24:56.374Z,12.60
2022-12-17T00:27:10.165Z,13.63
2022-12-17T00:29:25.914Z,13.10
2022-12-17T00:31:45.123Z,13.40
2022-12-17T00:33:58.843Z,13.43
2022-12-17T00:36:12.884Z,12.40
2022-12-17T00:38:27.939Z,12.20
2022-12-17T00:40:41.656Z,12.80
2022-12-17T00:42:56.413Z,11.93
2022-12-17T00:45:11.435Z,12.30
2022-12-17T00:47:25.095Z,12.13
2022-12-17T00:49:39.243Z,11.67
2022-12-17T00:51:55.904Z,12.63
2022-12-17T00:54:10.071Z,12.10
2022-12-17T00:56:24.274Z,12.23
2022-12-17T00:58:37.940Z,12.40
2022-12-17T01:00:52.933Z,11.80
2022-12-17T01:03:24.255Z,12.40
2022-12-17T01:05:37.901Z,12.03
2022-12-17T01:07:51.594Z,12.60
2022-12-17T01:10:05.915Z,12.00
2022-12-17T01:12:19.580Z,12.40
2022-12-17T01:14:33.246Z,11.80
2022-12-17T01:16:48.552Z,11.97
2022-12-17T01:19:02.291Z,11.70
2022-12-17T01:21:16.006Z,11.00
2022-12-17T01:23:30.174Z,12.07
2022-12-17T01:25:43.851Z,11.33
2022-12-17T01:28:00.270Z,11.20
2022-12-17T01:30:15.458Z,11.63
2022-12-17T01:32:30.709Z,11.93
2022-12-17T01:34:44.356Z,11.40
2022-12-17T01:37:02.898Z,11.60
2022-12-17T01:39:16.601Z,11.77
2022-12-17T01:41:30.333Z,11.67
2022-12-17T01:43:48.372Z,12.70
2022-12-17T01:46:05.081Z,11.97
2022-12-17T01:48:26.295Z,12.77
2022-12-17T01:50:42.013Z,11.27
2022-12-17T01:52:55.692Z,12.23
2022-12-17T01:55:12.363Z,10.80
2022-12-17T01:57:26.480Z,11.73
2022-12-17T01:59:46.427Z,11.60
2022-12-17T02:02:00.709Z,10.80
2022-12-17T02:04:19.667Z,11.10
2022-12-17T02:06:35.593Z,12.83
2022-12-17T02:08:53.265Z,11.43
2022-12-17T02:11:12.887Z,11.90
2022-12-17T02:13:29.676Z,11.30
2022-12-17T02:15:46.867Z,11.40
2022-12-17T02:18:02.595Z,11.53
2022-12-17T02:20:25.605Z,11.00
2022-12-17T02:22:42.612Z,11.43
2022-12-17T02:24:59.429Z,10.80
2022-12-17T02:27:15.719Z,10.53
2022-12-17T02:29:29.755Z,11.20
2022-12-17T02:31:48.275Z,11.43
2022-12-17T02:34:02.671Z,10.60
2022-12-17T02:36:18.382Z,10.93
2022-12-17T02:38:33.707Z,10.90
2022-12-17T02:40:48.488Z,11.50
2022-12-17T02:43:04.105Z,11.90
2022-12-17T02:45:19.742Z,10.63
2022-12-17T02:47:34.305Z,10.53
2022-12-17T02:49:48.658Z,11.20
2022-12-17T02:52:03.526Z,10.70
2022-12-17T02:54:18.100Z,11.13
2022-12-17T02:56:32.460Z,11.50
2022-12-17T02:58:48.907Z,11.57
2022-12-17T03:01:03.512Z,11.03
2022-12-17T03:03:21.292Z,10.90
2022-12-17T03:05:45.106Z,11.00
2022-12-17T03:08:00.265Z,11.20
2022-12-17T03:10:15.130Z,10.87
2022-12-17T03:12:30.067Z,11.57
2022-12-17T03:14:46.082Z,12.30
2022-12-17T03:17:00.715Z,12.17
2022-12-17T03:19:15.807Z,10.27
2022-12-17T03:21:30.468Z,10.30
2022-12-17T03:23:45.031Z,10.80
2022-12-17T03:25:59.981Z,11.10
2022-12-17T03:28:17.008Z,11.03
2022-12-17T03:30:36.012Z,11.60
2022-12-17T03:32:52.976Z,11.30
2022-12-17T03:35:07.430Z,10.87
2022-12-17T03:37:24.951Z,12.00
2022-12-17T03:39:40.846Z,10.43
2022-12-17T03:41:55.405Z,10.80
2022-12-17T03:44:09.949Z,10.70
2022-12-17T03:46:26.491Z,11.17
2022-12-17T03:48:41.119Z,11.60
2022-12-17T03:50:58.724Z,11.40
2022-12-17T03:53:14.010Z,11.00
2022-12-17T03:55:28.567Z,10.43
2022-12-17T03:57:43.113Z,11.97
2022-12-17T03:59:57.882Z,11.30
2022-12-17T04:02:13.846Z,11.07
2022-12-17T04:04:31.385Z,10.53
2022-12-17T04:06:46.327Z,10.77
2022-12-17T04:08:59.970Z,10.13
2022-12-17T04:11:16.584Z,11.20
2022-12-17T04:13:40.269Z,10.53
2022-12-17T04:15:54.657Z,10.60
2022-12-17T04:18:09.662Z,10.43
2022-12-17T04:20:26.757Z,10.30
2022-12-17T04:22:40.401Z,10.30
2022-12-17T04:24:54.060Z,9.83
2022-12-17T04:27:08.200Z,9.67
2022-12-17T04:29:21.864Z,9.77
2022-12-17T04:31:35.571Z,10.40
2022-12-17T04:33:53.897Z,9.87
2022-12-17T04:36:10.513Z,10.00
2022-12-17T04:38:24.158Z,10.60
2022-12-17T04:40:38.181Z,10.00
2022-12-17T04:42:51.910Z,9.67
2022-12-17T04:45:05.560Z,9.60
2022-12-17T04:47:22.666Z,10.70
2022-12-17T04:49:37.673Z,9.90
2022-12-17T04:51:51.342Z,9.80
2022-12-17T04:54:08.387Z,9.60
2022-12-17T04:56:22.071Z,10.37
2022-12-17T04:58:36.744Z,9.93
2022-12-17T05:00:50.849Z,9.83
2022-12-17T05:03:04.663Z,9.30
2022-12-17T05:05:20.186Z,8.83
2022-12-17T05:07:34.321Z,9.33
2022-12-17T05:09:47.994Z,10.07
2022-12-17T05:12:01.633Z,10.13
2022-12-17T05:14:15.828Z,9.63
2022-12-17T05:16:29.664Z,9.93
2022-12-17T05:18:43.455Z,8.20
2022-12-17T05:20:58.843Z,8.83
2022-12-17T05:23:20.079Z,9.50
2022-12-17T05:25:33.736Z,9.00
2022-12-17T05:27:47.873Z,8.73
2022-12-17T05:30:01.564Z,9.00
2022-12-17T05:32:15.411Z,9.30
2022-12-17T05:34:29.496Z,8.50
2022-12-17T05:36:44.436Z,9.37
2022-12-17T05:38:59.021Z,9.93
2022-12-17T05:41:13.129Z,8.20
2022-12-17T05:43:26.819Z,9.10
2022-12-17T05:45:40.469Z,9.03
2022-12-17T05:47:54.537Z,8.60
2022-12-17T05:50:11.186Z,8.20
2022-12-17T05:52:26.182Z,8.40
2022-12-17T05:54:40.287Z,8.73
2022-12-17T05:56:53.991Z,9.10
2022-12-17T05:59:07.727Z,8.90
2022-12-17T06:01:21.728Z,8.90
2022-12-17T06:03:36.074Z,8.37
2022-12-17T06:05:49.998Z,8.90
2022-12-17T06:08:05.429Z,8.93
2022-12-17T06:10:19.358Z,8.37
2022-12-17T06:12:33.071Z,8.77
2022-12-17T06:14:47.192Z,8.50
2022-12-17T06:17:00.897Z,8.00
2022-12-17T06:19:14.565Z,8.60
2022-12-17T06:21:28.620Z,9.10
2022-12-17T06:23:43.601Z,8.00
2022-12-17T06:25:57.327Z,8.27
2022-12-17T06:28:11.664Z,8.10
2022-12-17T06:30:25.319Z,8.33
2022-12-17T06:32:39.003Z,8.33
2022-12-17T06:34:53.055Z,7.73
2022-12-17T06:37:06.727Z,8.63
2022-12-17T06:39:21.786Z,7.20
2022-12-17T06:41:36.967Z,7.40
2022-12-17T06:43:50.744Z,7.50
2022-12-17T06:46:04.458Z,8.33
2022-12-17T06:48:19.594Z,8.50
2022-12-17T06:50:33.304Z,8.40
2022-12-17T06:52:47.065Z,7.20
2022-12-17T06:55:02.446Z,7.00
2022-12-17T06:57:16.153Z,8.17
2022-12-17T06:59:29.863Z,7.53
2022-12-17T07:01:44.191Z,7.77
2022-12-17T07:03:58.119Z,7.93
2022-12-17T07:06:12.334Z,7.30
2022-12-17T07:08:26.481Z,7.63
2022-12-17T07:10:42.501Z,8.43
2022-12-17T07:12:56.208Z,7.50
2022-12-17T07:15:10.824Z,7.83
2022-12-17T07:17:27.408Z,8.00
2022-12-17T07:19:41.117Z,7.80
2022-12-17T07:21:55.286Z,7.73
2022-12-17T07:24:08.989Z,7.33
2022-12-17T07:26:24.464Z,7.87
2022-12-17T07:28:38.608Z,7.40
2022-12-17T07:30:55.871Z,8.23
2022-12-17T07:33:10.851Z,7.53
2022-12-17T07:35:25.453Z,7.47
2022-12-17T07:37:39.222Z,7.30
2022-12-17T07:39:52.935Z,7.80
2022-12-17T07:42:08.328Z,7.70
2022-12-17T07:44:21.969Z,7.70
2022-12-17T07:46:35.736Z,8.33
2022-12-17T07:48:49.933Z,7.90
2022-12-17T07:51:06.689Z,7.93
2022-12-17T07:53:20.491Z,7.40
2022-12-17T07:55:34.442Z,8.03
2022-12-17T07:57:52.582Z,7.17
2022-12-17T08:00:06.285Z,7.40
2022-12-17T08:02:22.037Z,8.27
2022-12-17T08:04:35.898Z,8.63
2022-12-17T08:06:49.591Z,7.80
2022-12-17T08:09:06.691Z,8.83
2022-12-17T08:11:20.458Z,8.60
2022-12-17T08:13:35.992Z,9.63
2022-12-17T08:15:50.147Z,9.60
2022-12-17T08:18:03.823Z,9.63
2022-12-17T08:20:18.709Z,9.60
2022-12-17T08:22:32.775Z,9.67
2022-12-17T08:24:47.096Z,9.67
2022-12-17T08:27:00.864Z,10.33
2022-12-17T08:29:16.604Z,10.17
2022-12-17T08:31:30.976Z,10.67
2022-12-17T08:33:47.750Z,10.57
2022-12-17T08:36:04.925Z,10.77
2022-12-17T08:38:19.913Z,9.37
2022-12-17T08:40:34.044Z,9.90
2022-12-17T08:42:48.168Z,9.80
2022-12-17T08:45:04.562Z,9.30
2022-12-17T08:47:19.458Z,9.47
2022-12-17T08:49:33.471Z,9.53
2022-12-17T08:51:47.187Z,9.90
2022-12-17T08:54:01.238Z,9.80
2022-12-17T08:56:15.264Z,8.83
2022-12-17T08:58:28.936Z,10.70
2022-12-17T09:00:43.913Z,10.30
2022-12-17T09:03:02.162Z,10.23
2022-12-17T09:05:16.471Z,9.13
2022-12-17T09:07:33.139Z,9.00
2022-12-17T09:09:48.258Z,9.60
2022-12-17T09:12:02.249Z,9.77
2022-12-17T09:14:15.943Z,9.93
2022-12-17T09:16:31.561Z,9.10
2022-12-17T09:18:45.850Z,9.90
2022-12-17T09:21:08.685Z,9.57
2022-12-17T09:23:27.514Z,8.73
2022-12-17T09:25:41.264Z,9.37
2022-12-17T09:27:57.612Z,10.57
2022-12-17T09:30:12.879Z,10.30
2022-12-17T09:32:27.939Z,10.60
2022-12-17T09:34:41.617Z,10.20
2022-12-17T09:36:59.446Z,10.47
2022-12-17T09:39:16.370Z,11.37
2022-12-17T09:41:33.424Z,11.23
2022-12-17T09:43:53.468Z,11.70
2022-12-17T09:46:09.700Z,11.20
2022-12-17T09:48:32.196Z,11.83
2022-12-17T09:50:46.766Z,11.67
2022-12-17T09:53:00.835Z,11.47
2022-12-17T09:55:14.540Z,11.43
2022-12-17T09:57:29.609Z,12.70
2022-12-17T09:59:45.910Z,11.17
2022-12-17T10:01:59.669Z,11.00
2022-12-17T10:04:16.634Z,13.10
2022-12-17T10:06:34.254Z,13.33
2022-12-17T10:08:47.942Z,14.20
2022-12-17T10:11:06.780Z,13.43
2022-12-17T10:13:23.645Z,13.03
2022-12-17T10:15:38.612Z,13.60
2022-12-17T10:17:52.867Z,13.67
2022-12-17T10:20:13.227Z,14.10
2022-12-17T10:22:28.293Z,14.07
2022-12-17T10:24:42.673Z,13.90
2022-12-17T10:27:01.311Z,15.70
2022-12-17T10:29:16.741Z,16.30
2022-12-17T10:31:31.803Z,15.60
2022-12-17T10:33:50.461Z,14.70
2022-12-17T10:36:05.486Z,14.77
2022-12-17T10:38:23.562Z,15.40
2022-12-17T10:40:38.856Z,16.47
2022-12-17T10:42:52.655Z,16.50
2022-12-17T10:45:06.773Z,15.97
2022-12-17T10:47:23.847Z,18.07
2022-12-17T10:49:40.590Z,18.30
2022-12-17T10:51:55.895Z,16.30
2022-12-17T10:54:09.666Z,16.70
2022-12-17T10:56:31.668Z,16.83
2022-12-17T10:58:46.666Z,17.37
2022-12-17T11:01:00.396Z,16.17
2022-12-17T11:03:17.180Z,17.07
2022-12-17T11:05:37.284Z,17.90
2022-12-17T11:07:54.440Z,18.20
2022-12-17T11:10:09.958Z,16.40
2022-12-17T11:12:30.111Z,17.50
2022-12-17T11:14:44.986Z,17.73
2022-12-17T11:17:00.696Z,18.50
2022-12-17T11:19:29.360Z,17.83
2022-12-17T11:21:44.649Z,19.63
2022-12-17T11:24:00.926Z,19.10
2022-12-17T11:26:19.239Z,18.93
2022-12-17T11:28:35.040Z,18.03
2022-12-17T11:30:52.500Z,19.30
2022-12-17T11:33:11.495Z,18.57
2022-12-17T11:35:28.632Z,18.03
2022-12-17T11:37:44.281Z,16.97
2022-12-17T11:40:04.119Z,18.43
2022-12-17T11:42:20.097Z,18.83
2022-12-17T11:44:41.699Z,18.30
2022-12-17T11:46:58.026Z,18.60
2022-12-17T11:49:18.644Z,16.90
2022-12-17T11:51:45.704Z,16.80
2022-12-17T11:54:06.973Z,17.63
2022-12-17T11:56:25.701Z,16.37
2022-12-17T11:58:42.364Z,17.03
2022-12-17T12:01:01.191Z,16.83
2022-12-17T12:03:21.282Z,17.87
2022-12-17T12:05:38.000Z,16.97
2022-12-17T12:07:55.009Z,16.17
2022-12-17T12:10:14.057Z,16.60
2022-12-17T12:12:36.182Z,16.70
2022-12-17T12:14:53.073Z,16.33
2022-12-17T12:17:09.545Z,15.53
2022-12-17T12:19:26.600Z,15.90
2022-12-17T12:21:49.704Z,18.50
2022-12-17T12:24:07.497Z,16.90
2022-12-17T12:26:24.731Z,15.80
2022-12-17T12:28:42.579Z,15.23
2022-12-17T12:30:59.955Z,15.13
2022-12-17T12:33:17.347Z,15.97
2022-12-17T12:35:33.621Z,16.00
2022-12-17T12:37:49.723Z,15.63
2022-12-17T12:40:07.747Z,15.93
2022-12-17T12:42:27.332Z,16.10
2022-12-17T12:44:49.684Z,15.87
2022-12-17T12:47:05.188Z,14.67
2022-12-17T12:49:25.155Z,15.47
2022-12-17T12:51:39.999Z,14.93
2022-12-17T12:53:53.772Z,15.10
2022-12-17T12:56:07.467Z,16.43
2022-12-17T12:58:37.130Z,15.20
2022-12-17T13:01:05.868Z,16.00
2022-12-17T13:03:24.132Z,14.47
2022-12-17T13:05:37.594Z,14.90
2022-12-17T13:07:40.938Z,15.07
2022-12-17T13:09:49.146Z,14.30
2022-12-17T13:11:54.885Z,13.60
2022-12-17T13:14:00.789Z,14.20
2022-12-17T13:16:06.293Z,14.23
2022-12-17T13:18:19.785Z,15.37
2022-12-17T13:20:25.997Z,15.17
2022-12-17T13:22:29.930Z,14.63
2022-12-17T13:24:32.661Z,15.10
2022-12-17T13:26:44.467Z,15.60
2022-12-17T13:28:58.998Z,15.10
2022-12-17T13:31:06.904Z,14.73
2022-12-17T13:33:21.122Z,14.77
2022-12-17T13:35:28.128Z,14.63
2022-12-17T13:37:35.692Z,15.50
2022-12-17T13:39:41.951Z,14.40
2022-12-17T13:41:45.140Z,14.47
2022-12-17T13:43:49.607Z,13.80
2022-12-17T13:45:52.650Z,13.87
2022-12-17T13:47:57.199Z,13.60
2022-12-17T13:52:25.152Z,15.60
2022-12-17T13:54:27.875Z,14.90
2022-12-17T13:56:34.614Z,14.20
2022-12-17T13:58:37.793Z,15.47
2022-12-17T14:00:40.895Z,15.07
2022-12-17T14:02:43.689Z,15.00
2022-12-17T14:05:01.705Z,15.60
2022-12-17T14:07:09.505Z,15.17
2022-12-17T14:09:15.404Z,15.07
2022-12-17T14:11:32.306Z,15.17
2022-12-17T14:13:35.205Z,16.30
2022-12-17T14:15:37.958Z,16.40
2022-12-17T14:17:43.578Z,16.00
2022-12-17T14:19:46.607Z,17.27
2022-12-17T14:21:50.600Z,16.97
2022-12-17T14:23:53.371Z,15.53
2022-12-17T14:25:56.149Z,15.90
2022-12-17T14:28:00.684Z,15.33
2022-12-17T14:30:04.313Z,15.37
2022-12-17T14:32:23.624Z,15.23
2022-12-17T14:34:26.689Z,15.10
2022-12-17T14:36:29.509Z,15.30
2022-12-17T14:38:42.977Z,15.50
2022-12-17T14:40:49.537Z,14.83
2022-12-17T14:42:53.477Z,14.23
2022-12-17T14:44:59.319Z,14.63
2022-12-17T14:47:16.794Z,14.63
2022-12-17T14:49:25.473Z,13.50
2022-12-17T14:51:34.714Z,15.27
2022-12-17T14:53:40.359Z,14.20
2022-12-17T14:55:56.295Z,14.13
2022-12-17T14:58:15.181Z,14.57
2022-12-17T15:00:18.623Z,14.60
2022-12-17T15:02:36.658Z,13.97
2022-12-17T15:04:42.519Z,13.70
2022-12-17T15:06:46.305Z,13.83
2022-12-17T15:08:51.071Z,13.13
2022-12-17T15:10:54.302Z,13.60
2022-12-17T15:12:58.347Z,14.03
2022-12-17T15:15:01.075Z,13.60
2022-12-17T15:17:04.000Z,13.30
2022-12-17T15:19:07.203Z,12.80
2022-12-17T15:21:10.590Z,12.10
2022-12-17T15:23:15.940Z,13.13
2022-12-17T15:25:20.167Z,14.03
2022-12-17T15:27:23.223Z,12.00
2022-12-17T15:29:26.190Z,12.50
2022-12-17T15:31:35.036Z,12.53
2022-12-17T15:33:38.223Z,11.97
2022-12-17T15:35:40.982Z,11.73
2022-12-17T15:37:45.018Z,12.93
2022-12-17T15:39:47.810Z,12.90
2022-12-17T15:42:02.827Z,11.60
2022-12-17T15:44:05.832Z,12.07
2022-12-17T15:46:10.319Z,12.23
2022-12-17T15:48:13.795Z,11.40
2022-12-17T15:50:16.575Z,11.77
2022-12-17T15:52:19.579Z,12.03
2022-12-17T15:54:22.318Z,12.53
2022-12-17T15:56:34.517Z,12.33
2022-12-17T15:58:38.881Z,12.90
2022-12-17T16:00:45.095Z,12.30
2022-12-17T16:02:48.335Z,12.00
2022-12-17T16:04:52.103Z,12.43
2022-12-17T16:06:55.248Z,12.20
2022-12-17T16:08:57.963Z,12.13
2022-12-17T16:11:00.978Z,12.87
2022-12-17T16:13:04.106Z,12.30
2022-12-17T16:15:09.491Z,11.97
2022-12-17T16:17:12.242Z,12.37
2022-12-17T16:19:14.933Z,11.40
2022-12-17T16:21:17.981Z,12.17
2022-12-17T16:23:21.004Z,11.70
2022-12-17T16:25:23.664Z,11.67
2022-12-17T16:27:26.604Z,12.80
2022-12-17T16:29:29.303Z,13.13
2022-12-17T16:31:33.624Z,12.63
2022-12-17T16:33:37.724Z,12.60
2022-12-17T16:35:40.407Z,12.67
2022-12-17T16:37:43.141Z,11.63
2022-12-17T16:39:46.118Z,12.27
2022-12-17T16:41:57.507Z,12.47
2022-12-17T16:44:20.969Z,12.03
2022-12-17T16:46:29.276Z,12.57
2022-12-17T16:48:38.485Z,11.87
2022-12-17T16:50:41.556Z,12.40
2022-12-17T16:52:44.882Z,13.00
2022-12-17T16:54:48.443Z,11.90
2022-12-17T16:56:51.190Z,11.80
2022-12-17T16:58:54.550Z,12.50
2022-12-17T17:01:12.157Z,13.23
2022-12-17T17:03:15.189Z,12.00
2022-12-17T17:05:19.742Z,11.70
2022-12-17T17:07:22.479Z,12.60
2022-12-17T17:09:25.495Z,12.73
2022-12-17T17:11:29.910Z,11.60
2022-12-17T17:13:32.628Z,12.00
2022-12-17T17:15:35.387Z,11.60
2022-12-17T17:17:54.375Z,12.23
2022-12-17T17:19:59.914Z,12.80
2022-12-17T17:22:03.901Z,12.30
2022-12-17T17:24:09.864Z,12.00
2022-12-17T17:26:12.824Z,11.23
2022-12-17T17:28:15.567Z,11.37
2022-12-17T17:30:18.676Z,11.67
2022-12-17T17:32:21.453Z,12.13
2022-12-17T17:34:24.417Z,11.80
2022-12-17T17:36:27.715Z,11.80
2022-12-17T17:38:33.548Z,11.83
2022-12-17T17:40:36.773Z,11.03
2022-12-17T17:42:39.664Z,11.30
2022-12-17T17:44:44.365Z,11.60
2022-12-17T17:46:47.773Z,11.87
2022-12-17T17:48:55.372Z,12.77
2022-12-17T17:51:00.774Z,11.63
2022-12-17T17:53:03.902Z,11.17
2022-12-17T17:55:08.890Z,11.40
2022-12-17T17:57:12.075Z,11.80
2022-12-17T17:59:19.721Z,11.77
2022-12-17T18:01:33.353Z,11.17
2022-12-17T18:03:37.723Z,12.40
2022-12-17T18:05:42.285Z,12.13
2022-12-17T18:07:45.878Z,12.20
2022-12-17T18:09:48.929Z,12.40
2022-12-17T18:11:53.169Z,12.00
2022-12-17T18:13:55.429Z,12.20
2022-12-17T18:16:01.799Z,12.13
2022-12-17T18:18:08.458Z,12.60
2022-12-17T18:20:14.033Z,12.20
2022-12-17T18:22:17.151Z,12.40
2022-12-17T18:24:21.376Z,12.47
2022-12-17T18:26:24.504Z,12.30
2022-12-17T18:28:30.112Z,12.60
2022-12-17T18:30:32.842Z,11.93
2022-12-17T18:32:35.587Z,12.60
2022-12-17T18:34:38.369Z,11.70
2022-12-17T18:36:42.460Z,12.50
2022-12-17T18:38:45.375Z,12.87
2022-12-17T18:40:48.909Z,12.90
2022-12-17T18:43:02.913Z,13.70
2022-12-17T18:45:08.001Z,12.57
2022-12-17T18:47:11.194Z,13.23
2022-12-17T18:49:15.145Z,13.20
2022-12-17T18:51:17.870Z,12.30
2022-12-17T18:53:22.334Z,12.60
2022-12-17T18:55:25.435Z,12.77
2022-12-17T18:57:28.131Z,12.60
2022-12-17T18:59:31.204Z,12.80
2022-12-17T19:01:36.642Z,13.30
2022-12-17T19:03:39.977Z,13.13
2022-12-17T19:05:46.448Z,13.27
2022-12-17T19:07:51.096Z,12.63
2022-12-17T19:09:54.185Z,12.43
2022-12-17T19:11:57.012Z,12.87
2022-12-17T19:13:59.699Z,13.13
2022-12-17T19:16:08.094Z,13.40
2022-12-17T19:18:12.140Z,12.77
2022-12-17T19:20:15.997Z,14.20
2022-12-17T19:22:19.795Z,12.80
2022-12-17T19:24:25.723Z,12.37
2022-12-17T19:26:29.675Z,13.97
2022-12-17T19:28:34.830Z,13.80
2022-12-17T19:30:38.062Z,13.50
2022-12-17T19:32:41.222Z,13.80
2022-12-17T19:34:45.457Z,13.10
2022-12-17T19:36:49.444Z,13.40
2022-12-17T19:38:52.616Z,13.10
2022-12-17T19:40:58.899Z,12.50
2022-12-17T19:43:02.401Z,12.87
2022-12-17T19:45:05.732Z,14.00
2022-12-17T19:47:08.770Z,13.03
2022-12-17T19:49:13.708Z,13.10
2022-12-17T19:51:19.048Z,12.83
2022-12-17T19:53:23.454Z,12.47
2022-12-17T19:55:26.473Z,14.03
2022-12-17T19:57:29.803Z,13.47
2022-12-17T19:59:32.576Z,13.30
2022-12-17T20:01:36.386Z,13.23
2022-12-17T20:03:39.785Z,13.27
2022-12-17T20:05:44.708Z,14.90
2022-12-17T20:07:48.788Z,13.67
2022-12-17T20:09:51.460Z,13.30
2022-12-17T20:11:54.217Z,14.60
2022-12-17T20:14:00.889Z,14.13
2022-12-17T20:16:04.446Z,13.87
2022-12-17T20:18:07.193Z,12.80
2022-12-17T20:20:11.396Z,13.00
2022-12-17T20:22:15.493Z,13.27
2022-12-17T20:24:19.989Z,14.17
2022-12-17T20:26:22.672Z,13.33
2022-12-17T20:28:25.387Z,13.67
2022-12-17T20:30:29.513Z,14.40
2022-12-17T20:32:35.233Z,15.63
2022-12-17T20:34:38.023Z,14.93
2022-12-17T20:36:40.698Z,13.87
2022-12-17T20:38:43.988Z,14.23
2022-12-17T20:40:48.019Z,13.37
2022-12-17T20:42:52.333Z,13.37
2022-12-17T20:44:55.048Z,14.10
2022-12-17T20:46:58.148Z,12.83
2022-12-17T20:49:01.184Z,14.00
2022-12-17T20:51:11.894Z,13.63
2022-12-17T20:53:14.604Z,13.17
2022-12-17T20:55:18.184Z,14.57
2022-12-17T20:57:22.171Z,13.70
2022-12-17T20:59:24.860Z,13.53
2022-12-17T21:01:28.624Z,13.30
2022-12-17T21:03:32.438Z,12.93
2022-12-17T21:05:36.065Z,14.83
2022-12-17T21:07:38.854Z,13.40
2022-12-17T21:09:41.597Z,14.97
2022-12-17T21:11:44.840Z,13.20
2022-12-17T21:13:48.944Z,13.83
2022-12-17T21:15:55.247Z,15.27
2022-12-17T21:17:58.029Z,14.63
2022-12-17T21:20:06.111Z,15.30
2022-12-17T21:22:14.244Z,15.27
2022-12-17T21:24:17.027Z,15.83
2022-12-17T21:26:20.935Z,14.73
2022-12-17T21:28:24.001Z,16.23
2022-12-17T21:30:28.128Z,16.17
2022-12-17T21:32:33.828Z,16.20
2022-12-17T21:34:37.110Z,16.33
2022-12-17T21:36:40.534Z,15.97
2022-12-17T21:38:43.435Z,16.67
2022-12-17T21:40:46.169Z,16.33
2022-12-17T21:43:00.261Z,15.70
2022-12-17T21:45:03.497Z,16.63
2022-12-17T21:47:08.054Z,16.93
2022-12-17T21:49:11.415Z,16.23
2022-12-17T21:51:15.149Z,16.57
2022-12-17T21:53:18.231Z,15.80
2022-12-17T21:55:21.352Z,16.60
2022-12-17T21:57:24.453Z,16.10
2022-12-17T21:59:38.966Z,15.53
2022-12-17T22:01:41.842Z,15.77
2022-12-17T22:03:46.230Z,16.53
2022-12-17T22:05:51.402Z,16.37
2022-12-17T22:07:54.260Z,15.93
2022-12-17T22:10:36.257Z,17.40
2022-12-17T22:12:31.278Z,18.10
2022-12-17T22:14:34.013Z,16.23
2022-12-17T22:16:42.078Z,16.80
2022-12-17T22:18:46.277Z,17.37
2022-12-17T22:20:57.950Z,17.17
2022-12-17T22:23:00.865Z,16.73
2022-12-17T22:25:08.148Z,17.30
2022-12-17T22:27:11.650Z,17.20
2022-12-17T22:29:35.181Z,17.17
2022-12-17T22:31:48.866Z,15.60
2022-12-17T22:34:54.359Z,17.80
2022-12-17T22:39:24.464Z,16.10
2022-12-17T22:42:16.775Z,17.23
2022-12-17T22:44:29.591Z,18.17
2022-12-17T22:44:49.260Z,17.10
2022-12-17T22:45:53.083Z,17.03
2022-12-17T22:47:57.683Z,17.70
2022-12-17T22:50:01.722Z,18.40
2022-12-17T22:52:05.635Z,17.07
2022-12-17T22:54:09.808Z,17.90
2022-12-17T22:56:43.053Z,18.37
2022-12-17T22:58:48.140Z,17.33
2022-12-17T23:00:51.189Z,18.93
2022-12-17T23:02:55.877Z,16.20
2022-12-17T23:04:58.715Z,17.90
2022-12-17T23:07:02.751Z,17.60
2022-12-17T23:09:06.208Z,17.73
2022-12-17T23:11:10.198Z,17.43
2022-12-17T23:13:12.960Z,17.70
2022-12-17T23:15:16.004Z,17.43
2022-12-17T23:17:18.710Z,17.23
2022-12-17T23:19:21.406Z,18.30
2022-12-17T23:21:26.527Z,16.97
2022-12-17T23:23:30.964Z,17.10
2022-12-17T23:25:33.710Z,18.20
2022-12-17T23:27:36.939Z,19.33
2022-12-17T23:29:39.784Z,17.90
2022-12-17T23:31:42.932Z,17.47
2022-12-17T23:33:45.717Z,18.50
2022-12-17T23:35:49.085Z,18.40
2022-12-17T23:37:51.897Z,19.03
2022-12-17T23:39:56.569Z,20.30
2022-12-17T23:41:59.246Z,18.97
2022-12-17T23:44:01.938Z,19.77
2022-12-17T23:46:04.780Z,19.70
2022-12-17T23:48:09.134Z,19.30
2022-12-17T23:50:12.138Z,19.40
2022-12-17T23:52:15.021Z,19.43
2022-12-17T23:54:17.923Z,19.60
2022-12-17T23:56:23.574Z,19.83
2022-12-17T23:58:26.426Z,21.10
